sensor_id;sensor_type;location;lat;lon;timestamp;temperature;humidity
12156;DHT22;6141;49.092;8.516;2024-02-15T00:01:12;12.90;49.50
12156;DHT22;6141;49.092;8.516;2024-02-15T00:04:01;13.00;48.70
12156;DHT22;6141;49.092;8.516;2024-02-15T00:06:49;13.10;47.80
12156;DHT22;6141;49.092;8.516;2024-02-15T00:09:38;13.20;47.80
12156;DHT22;6141;49.092;8.516;2024-02-15T00:12:27;13.40;46.50
12156;DHT22;6141;49.092;8.516;2024-02-15T00:15:15;13.40;45.40
12156;DHT22;6141;49.092;8.516;2024-02-15T00:18:05;13.20;46.20
12156;DHT22;6141;49.092;8.516;2024-02-15T00:20:54;12.70;48.40
12156;DHT22;6141;49.092;8.516;2024-02-15T00:23:43;12.70;50.50
12156;DHT22;6141;49.092;8.516;2024-02-15T00:26:31;12.40;51.00
12156;DHT22;6141;49.092;8.516;2024-02-15T00:29:20;12.40;51.20
12156;DHT22;6141;49.092;8.516;2024-02-15T00:32:08;12.40;51.00
12156;DHT22;6141;49.092;8.516;2024-02-15T00:34:59;12.30;52.10
12156;DHT22;6141;49.092;8.516;2024-02-15T00:37:48;12.20;53.00
12156;DHT22;6141;49.092;8.516;2024-02-15T00:40:38;12.20;53.30
12156;DHT22;6141;49.092;8.516;2024-02-15T00:43:27;12.00;54.10
12156;DHT22;6141;49.092;8.516;2024-02-15T00:46:16;12.00;54.40
12156;DHT22;6141;49.092;8.516;2024-02-15T00:49:05;12.00;54.50
12156;DHT22;6141;49.092;8.516;2024-02-15T00:51:55;12.00;53.70
12156;DHT22;6141;49.092;8.516;2024-02-15T00:54:43;12.00;53.90
12156;DHT22;6141;49.092;8.516;2024-02-15T00:57:32;11.80;54.70
12156;DHT22;6141;49.092;8.516;2024-02-15T01:00:20;11.80;54.70
12156;DHT22;6141;49.092;8.516;2024-02-15T01:03:09;11.80;54.40
12156;DHT22;6141;49.092;8.516;2024-02-15T01:05:57;11.80;54.50
12156;DHT22;6141;49.092;8.516;2024-02-15T01:08:48;11.80;54.60
12156;DHT22;6141;49.092;8.516;2024-02-15T01:11:37;11.80;54.40
12156;DHT22;6141;49.092;8.516;2024-02-15T01:14:28;12.10;52.00
12156;DHT22;6141;49.092;8.516;2024-02-15T01:17:18;12.20;51.70
12156;DHT22;6141;49.092;8.516;2024-02-15T01:20:07;12.40;50.40
12156;DHT22;6141;49.092;8.516;2024-02-15T01:22:55;12.40;49.20
12156;DHT22;6141;49.092;8.516;2024-02-15T01:25:45;12.40;49.90
12156;DHT22;6141;49.092;8.516;2024-02-15T01:28:34;12.60;48.60
12156;DHT22;6141;49.092;8.516;2024-02-15T01:31:24;12.60;48.40
12156;DHT22;6141;49.092;8.516;2024-02-15T01:34:13;12.70;47.40
12156;DHT22;6141;49.092;8.516;2024-02-15T01:37:02;12.60;48.30
12156;DHT22;6141;49.092;8.516;2024-02-15T01:39:51;12.60;48.10
12156;DHT22;6141;49.092;8.516;2024-02-15T01:42:41;12.60;47.60
12156;DHT22;6141;49.092;8.516;2024-02-15T01:45:29;12.70;47.40
12156;DHT22;6141;49.092;8.516;2024-02-15T01:48:18;12.50;49.10
12156;DHT22;6141;49.092;8.516;2024-02-15T01:51:08;12.30;50.90
12156;DHT22;6141;49.092;8.516;2024-02-15T01:53:58;12.30;50.50
12156;DHT22;6141;49.092;8.516;2024-02-15T01:56:48;12.50;49.60
12156;DHT22;6141;49.092;8.516;2024-02-15T01:59:39;12.50;49.20
12156;DHT22;6141;49.092;8.516;2024-02-15T02:02:31;12.20;51.20
12156;DHT22;6141;49.092;8.516;2024-02-15T02:05:21;12.00;52.80
12156;DHT22;6141;49.092;8.516;2024-02-15T02:08:09;11.90;53.80
12156;DHT22;6141;49.092;8.516;2024-02-15T02:10:58;11.90;54.30
12156;DHT22;6141;49.092;8.516;2024-02-15T02:13:47;11.90;54.70
12156;DHT22;6141;49.092;8.516;2024-02-15T02:16:37;11.80;54.20
12156;DHT22;6141;49.092;8.516;2024-02-15T02:19:26;11.90;54.20
12156;DHT22;6141;49.092;8.516;2024-02-15T02:22:16;12.30;51.80
12156;DHT22;6141;49.092;8.516;2024-02-15T02:25:07;12.50;49.70
12156;DHT22;6141;49.092;8.516;2024-02-15T02:27:56;12.40;50.50
12156;DHT22;6141;49.092;8.516;2024-02-15T02:30:45;12.30;50.80
12156;DHT22;6141;49.092;8.516;2024-02-15T02:33:34;12.50;49.70
12156;DHT22;6141;49.092;8.516;2024-02-15T02:36:22;12.60;48.80
12156;DHT22;6141;49.092;8.516;2024-02-15T02:39:14;12.60;48.60
12156;DHT22;6141;49.092;8.516;2024-02-15T02:42:04;12.40;49.40
12156;DHT22;6141;49.092;8.516;2024-02-15T02:44:53;12.30;50.10
12156;DHT22;6141;49.092;8.516;2024-02-15T02:47:42;12.10;51.60
12156;DHT22;6141;49.092;8.516;2024-02-15T02:50:31;11.80;53.90
12156;DHT22;6141;49.092;8.516;2024-02-15T02:53:19;11.60;56.10
12156;DHT22;6141;49.092;8.516;2024-02-15T02:56:08;11.40;58.20
12156;DHT22;6141;49.092;8.516;2024-02-15T02:58:59;11.40;59.10
12156;DHT22;6141;49.092;8.516;2024-02-15T03:01:47;11.40;59.20
12156;DHT22;6141;49.092;8.516;2024-02-15T03:04:36;11.50;58.80
12156;DHT22;6141;49.092;8.516;2024-02-15T03:07:27;11.50;58.30
12156;DHT22;6141;49.092;8.516;2024-02-15T03:10:16;11.70;57.90
12156;DHT22;6141;49.092;8.516;2024-02-15T03:13:05;12.20;54.60
12156;DHT22;6141;49.092;8.516;2024-02-15T03:15:57;12.50;51.90
12156;DHT22;6141;49.092;8.516;2024-02-15T03:18:46;12.70;49.70
12156;DHT22;6141;49.092;8.516;2024-02-15T03:21:36;12.80;47.50
12156;DHT22;6141;49.092;8.516;2024-02-15T03:24:24;12.80;47.70
12156;DHT22;6141;49.092;8.516;2024-02-15T03:27:13;13.10;46.40
12156;DHT22;6141;49.092;8.516;2024-02-15T03:30:02;12.90;46.60
12156;DHT22;6141;49.092;8.516;2024-02-15T03:32:53;12.50;49.30
12156;DHT22;6141;49.092;8.516;2024-02-15T03:35:42;12.20;51.50
12156;DHT22;6141;49.092;8.516;2024-02-15T03:38:31;11.80;53.60
12156;DHT22;6141;49.092;8.516;2024-02-15T03:41:19;11.60;56.40
12156;DHT22;6141;49.092;8.516;2024-02-15T03:44:08;11.70;56.40
12156;DHT22;6141;49.092;8.516;2024-02-15T03:46:57;12.10;53.60
12156;DHT22;6141;49.092;8.516;2024-02-15T03:49:47;12.70;49.90
12156;DHT22;6141;49.092;8.516;2024-02-15T03:52:36;12.90;47.60
12156;DHT22;6141;49.092;8.516;2024-02-15T03:55:25;12.60;48.00
12156;DHT22;6141;49.092;8.516;2024-02-15T03:58:14;12.40;50.10
12156;DHT22;6141;49.092;8.516;2024-02-15T04:01:03;12.20;50.90
12156;DHT22;6141;49.092;8.516;2024-02-15T04:03:54;12.40;50.70
12156;DHT22;6141;49.092;8.516;2024-02-15T04:06:44;12.60;48.80
12156;DHT22;6141;49.092;8.516;2024-02-15T04:09:32;12.80;47.50
12156;DHT22;6141;49.092;8.516;2024-02-15T04:12:23;12.90;47.60
12156;DHT22;6141;49.092;8.516;2024-02-15T04:15:11;13.20;45.20
12156;DHT22;6141;49.092;8.516;2024-02-15T04:18:01;13.10;44.90
12156;DHT22;6141;49.092;8.516;2024-02-15T04:20:50;12.70;47.40
12156;DHT22;6141;49.092;8.516;2024-02-15T04:23:40;12.50;49.10
12156;DHT22;6141;49.092;8.516;2024-02-15T04:26:29;12.60;48.10
12156;DHT22;6141;49.092;8.516;2024-02-15T04:29:19;12.80;47.50
12156;DHT22;6141;49.092;8.516;2024-02-15T04:32:08;12.70;47.40
12156;DHT22;6141;49.092;8.516;2024-02-15T04:34:57;12.60;48.20
12156;DHT22;6141;49.092;8.516;2024-02-15T04:37:45;12.90;46.20
12156;DHT22;6141;49.092;8.516;2024-02-15T04:40:36;12.90;46.00
12156;DHT22;6141;49.092;8.516;2024-02-15T04:43:26;12.80;46.60
12156;DHT22;6141;49.092;8.516;2024-02-15T04:46:16;12.70;47.40
12156;DHT22;6141;49.092;8.516;2024-02-15T04:49:04;12.70;47.40
12156;DHT22;6141;49.092;8.516;2024-02-15T04:51:55;12.40;48.20
12156;DHT22;6141;49.092;8.516;2024-02-15T04:54:47;12.00;50.70
12156;DHT22;6141;49.092;8.516;2024-02-15T04:57:37;11.80;52.60
12156;DHT22;6141;49.092;8.516;2024-02-15T05:00:28;11.80;52.60
12156;DHT22;6141;49.092;8.516;2024-02-15T05:03:16;12.10;51.40
12156;DHT22;6141;49.092;8.516;2024-02-15T05:06:06;12.30;50.40
12156;DHT22;6141;49.092;8.516;2024-02-15T05:08:55;12.50;49.40
12156;DHT22;6141;49.092;8.516;2024-02-15T05:11:44;12.70;47.40
12156;DHT22;6141;49.092;8.516;2024-02-15T05:14:36;12.60;47.30
12156;DHT22;6141;49.092;8.516;2024-02-15T05:17:28;12.40;48.70
12156;DHT22;6141;49.092;8.516;2024-02-15T05:20:17;12.40;47.70
12156;DHT22;6141;49.092;8.516;2024-02-15T05:23:08;12.40;48.90
12156;DHT22;6141;49.092;8.516;2024-02-15T05:25:56;12.50;48.50
12156;DHT22;6141;49.092;8.516;2024-02-15T05:28:45;12.30;49.50
12156;DHT22;6141;49.092;8.516;2024-02-15T05:31:35;12.30;49.40
12156;DHT22;6141;49.092;8.516;2024-02-15T05:34:25;12.40;48.40
12156;DHT22;6141;49.092;8.516;2024-02-15T05:37:17;12.30;48.40
12156;DHT22;6141;49.092;8.516;2024-02-15T05:40:06;12.30;49.70
12156;DHT22;6141;49.092;8.516;2024-02-15T05:43:02;12.00;50.50
12156;DHT22;6141;49.092;8.516;2024-02-15T05:45:50;11.70;52.40
12156;DHT22;6141;49.092;8.516;2024-02-15T05:48:41;11.90;52.40
12156;DHT22;6141;49.092;8.516;2024-02-15T05:51:30;12.10;50.50
12156;DHT22;6141;49.092;8.516;2024-02-15T05:54:18;12.30;49.40
12156;DHT22;6141;49.092;8.516;2024-02-15T05:57:09;12.20;48.90
12156;DHT22;6141;49.092;8.516;2024-02-15T05:59:59;12.00;50.80
12156;DHT22;6141;49.092;8.516;2024-02-15T06:02:50;12.10;50.70
12156;DHT22;6141;49.092;8.516;2024-02-15T06:05:42;12.40;48.90
12156;DHT22;6141;49.092;8.516;2024-02-15T06:08:30;12.60;47.30
12156;DHT22;6141;49.092;8.516;2024-02-15T06:11:19;12.80;46.60
12156;DHT22;6141;49.092;8.516;2024-02-15T06:14:08;12.80;45.70
12156;DHT22;6141;49.092;8.516;2024-02-15T06:16:56;12.70;46.20
12156;DHT22;6141;49.092;8.516;2024-02-15T06:19:45;12.70;45.30
12156;DHT22;6141;49.092;8.516;2024-02-15T06:22:35;12.70;45.20
12156;DHT22;6141;49.092;8.516;2024-02-15T06:25:23;12.60;46.00
12156;DHT22;6141;49.092;8.516;2024-02-15T06:28:12;12.60;47.50
12156;DHT22;6141;49.092;8.516;2024-02-15T06:31:27;12.60;45.70
12156;DHT22;6141;49.092;8.516;2024-02-15T06:34:33;12.70;44.90
12156;DHT22;6141;49.092;8.516;2024-02-15T06:37:41;12.50;45.50
12156;DHT22;6141;49.092;8.516;2024-02-15T06:40:47;12.30;46.70
12156;DHT22;6141;49.092;8.516;2024-02-15T06:43:35;12.30;46.20
12156;DHT22;6141;49.092;8.516;2024-02-15T06:46:24;12.50;45.30
12156;DHT22;6141;49.092;8.516;2024-02-15T06:49:13;12.60;44.90
12156;DHT22;6141;49.092;8.516;2024-02-15T06:52:01;12.50;45.40
12156;DHT22;6141;49.092;8.516;2024-02-15T06:54:51;12.40;45.20
12156;DHT22;6141;49.092;8.516;2024-02-15T06:57:41;12.50;45.30
12156;DHT22;6141;49.092;8.516;2024-02-15T07:00:29;12.50;44.20
12156;DHT22;6141;49.092;8.516;2024-02-15T07:03:18;12.60;44.10
12156;DHT22;6141;49.092;8.516;2024-02-15T07:06:09;12.70;43.70
12156;DHT22;6141;49.092;8.516;2024-02-15T07:08:57;12.80;43.50
12156;DHT22;6141;49.092;8.516;2024-02-15T07:11:53;12.90;42.30
12156;DHT22;6141;49.092;8.516;2024-02-15T07:14:42;12.90;41.30
12156;DHT22;6141;49.092;8.516;2024-02-15T07:17:31;12.80;40.80
12156;DHT22;6141;49.092;8.516;2024-02-15T07:20:20;12.70;42.60
12156;DHT22;6141;49.092;8.516;2024-02-15T07:23:10;12.70;43.10
12156;DHT22;6141;49.092;8.516;2024-02-15T07:25:58;12.80;42.50
12156;DHT22;6141;49.092;8.516;2024-02-15T07:28:48;12.80;42.40
12156;DHT22;6141;49.092;8.516;2024-02-15T07:31:37;12.80;42.10
12156;DHT22;6141;49.092;8.516;2024-02-15T07:34:26;12.80;42.80
12156;DHT22;6141;49.092;8.516;2024-02-15T07:37:15;13.10;40.90
12156;DHT22;6141;49.092;8.516;2024-02-15T07:40:04;13.10;40.10
12156;DHT22;6141;49.092;8.516;2024-02-15T07:42:59;13.10;40.90
12156;DHT22;6141;49.092;8.516;2024-02-15T07:45:51;13.10;41.20
12156;DHT22;6141;49.092;8.516;2024-02-15T07:48:40;13.20;40.50
12156;DHT22;6141;49.092;8.516;2024-02-15T07:51:32;13.40;38.20
12156;DHT22;6141;49.092;8.516;2024-02-15T07:54:22;13.50;38.10
12156;DHT22;6141;49.092;8.516;2024-02-15T07:57:11;13.50;38.00
12156;DHT22;6141;49.092;8.516;2024-02-15T08:00:00;13.40;39.50
12156;DHT22;6141;49.092;8.516;2024-02-15T08:02:58;13.50;37.70
12156;DHT22;6141;49.092;8.516;2024-02-15T08:05:47;13.60;36.80
12156;DHT22;6141;49.092;8.516;2024-02-15T08:08:35;13.60;37.30
12156;DHT22;6141;49.092;8.516;2024-02-15T08:11:24;13.60;37.60
12156;DHT22;6141;49.092;8.516;2024-02-15T08:14:13;13.70;36.60
12156;DHT22;6141;49.092;8.516;2024-02-15T08:17:02;13.90;36.00
12156;DHT22;6141;49.092;8.516;2024-02-15T08:19:52;13.80;36.40
12156;DHT22;6141;49.092;8.516;2024-02-15T08:22:41;13.80;36.40
12156;DHT22;6141;49.092;8.516;2024-02-15T08:25:31;13.90;36.00
12156;DHT22;6141;49.092;8.516;2024-02-15T08:28:19;13.90;36.00
12156;DHT22;6141;49.092;8.516;2024-02-15T08:31:11;13.80;35.90
12156;DHT22;6141;49.092;8.516;2024-02-15T08:34:02;13.80;35.80
12156;DHT22;6141;49.092;8.516;2024-02-15T08:36:54;13.80;36.20
12156;DHT22;6141;49.092;8.516;2024-02-15T08:39:45;13.80;37.20
12156;DHT22;6141;49.092;8.516;2024-02-15T08:42:34;13.80;37.10
12156;DHT22;6141;49.092;8.516;2024-02-15T08:45:22;13.90;37.40
12156;DHT22;6141;49.092;8.516;2024-02-15T08:48:12;13.90;37.80
12156;DHT22;6141;49.092;8.516;2024-02-15T08:51:00;14.00;37.50
12156;DHT22;6141;49.092;8.516;2024-02-15T08:53:51;14.00;38.30
12156;DHT22;6141;49.092;8.516;2024-02-15T08:56:39;14.10;39.10
12156;DHT22;6141;49.092;8.516;2024-02-15T08:59:28;14.20;36.70
12156;DHT22;6141;49.092;8.516;2024-02-15T09:02:16;14.20;38.20
12156;DHT22;6141;49.092;8.516;2024-02-15T09:05:06;14.30;38.10
12156;DHT22;6141;49.092;8.516;2024-02-15T09:07:54;14.50;37.20
12156;DHT22;6141;49.092;8.516;2024-02-15T09:10:44;14.60;35.50
12156;DHT22;6141;49.092;8.516;2024-02-15T09:13:33;14.70;35.60
12156;DHT22;6141;49.092;8.516;2024-02-15T09:16:24;14.80;34.70
12156;DHT22;6141;49.092;8.516;2024-02-15T09:19:13;15.10;35.10
12156;DHT22;6141;49.092;8.516;2024-02-15T09:22:02;15.10;32.50
12156;DHT22;6141;49.092;8.516;2024-02-15T09:24:51;15.10;30.70
12156;DHT22;6141;49.092;8.516;2024-02-15T09:27:42;15.20;30.80
12156;DHT22;6141;49.092;8.516;2024-02-15T09:30:30;15.30;30.90
12156;DHT22;6141;49.092;8.516;2024-02-15T09:33:19;15.30;31.00
12156;DHT22;6141;49.092;8.516;2024-02-15T09:36:08;15.40;31.60
12156;DHT22;6141;49.092;8.516;2024-02-15T09:38:57;15.50;32.80
12156;DHT22;6141;49.092;8.516;2024-02-15T09:41:46;15.70;30.00
12156;DHT22;6141;49.092;8.516;2024-02-15T09:44:42;15.80;29.90
12156;DHT22;6141;49.092;8.516;2024-02-15T09:47:34;15.90;31.50
12156;DHT22;6141;49.092;8.516;2024-02-15T09:50:24;16.00;29.40
12156;DHT22;6141;49.092;8.516;2024-02-15T09:53:13;16.00;30.20
12156;DHT22;6141;49.092;8.516;2024-02-15T09:56:03;16.10;29.00
12156;DHT22;6141;49.092;8.516;2024-02-15T09:58:53;16.20;29.70
12156;DHT22;6141;49.092;8.516;2024-02-15T10:01:45;16.10;28.70
12156;DHT22;6141;49.092;8.516;2024-02-15T10:04:35;16.20;30.20
12156;DHT22;6141;49.092;8.516;2024-02-15T10:07:25;16.20;29.40
12156;DHT22;6141;49.092;8.516;2024-02-15T10:10:18;16.10;29.10
12156;DHT22;6141;49.092;8.516;2024-02-15T10:13:13;16.20;29.80
12156;DHT22;6141;49.092;8.516;2024-02-15T10:16:14;16.50;29.50
12156;DHT22;6141;49.092;8.516;2024-02-15T10:19:09;16.70;27.40
12156;DHT22;6141;49.092;8.516;2024-02-15T10:22:05;16.60;26.70
12156;DHT22;6141;49.092;8.516;2024-02-15T10:25:10;16.60;28.10
12156;DHT22;6141;49.092;8.516;2024-02-15T10:28:01;16.80;26.90
12156;DHT22;6141;49.092;8.516;2024-02-15T10:30:50;16.70;26.80
12156;DHT22;6141;49.092;8.516;2024-02-15T10:33:40;16.70;28.10
12156;DHT22;6141;49.092;8.516;2024-02-15T10:36:30;16.80;27.30
12156;DHT22;6141;49.092;8.516;2024-02-15T10:39:20;16.90;28.30
12156;DHT22;6141;49.092;8.516;2024-02-15T10:42:09;17.00;27.80
12156;DHT22;6141;49.092;8.516;2024-02-15T10:44:59;17.10;26.20
12156;DHT22;6141;49.092;8.516;2024-02-15T10:47:49;17.10;26.30
12156;DHT22;6141;49.092;8.516;2024-02-15T10:50:39;17.00;27.60
12156;DHT22;6141;49.092;8.516;2024-02-15T10:53:31;16.90;26.90
12156;DHT22;6141;49.092;8.516;2024-02-15T10:56:26;17.10;27.10
12156;DHT22;6141;49.092;8.516;2024-02-15T10:59:24;17.30;22.10
12156;DHT22;6141;49.092;8.516;2024-02-15T11:02:26;17.20;23.30
12156;DHT22;6141;49.092;8.516;2024-02-15T11:05:17;16.80;21.70
12156;DHT22;6141;49.092;8.516;2024-02-15T11:08:11;16.60;21.90
12156;DHT22;6141;49.092;8.516;2024-02-15T11:11:01;16.60;22.70
12156;DHT22;6141;49.092;8.516;2024-02-15T11:14:26;16.70;22.70
12156;DHT22;6141;49.092;8.516;2024-02-15T11:17:47;16.60;21.50
12156;DHT22;6141;49.092;8.516;2024-02-15T11:20:51;16.70;24.80
12156;DHT22;6141;49.092;8.516;2024-02-15T11:23:43;16.80;22.10
12156;DHT22;6141;49.092;8.516;2024-02-15T11:26:46;16.90;22.80
12156;DHT22;6141;49.092;8.516;2024-02-15T11:29:50;16.90;21.80
12156;DHT22;6141;49.092;8.516;2024-02-15T11:32:44;16.90;20.70
12156;DHT22;6141;49.092;8.516;2024-02-15T11:36:02;16.80;21.70
12156;DHT22;6141;49.092;8.516;2024-02-15T11:38:50;17.00;21.90
12156;DHT22;6141;49.092;8.516;2024-02-15T11:41:39;16.80;24.00
12156;DHT22;6141;49.092;8.516;2024-02-15T11:44:29;16.80;23.60
12156;DHT22;6141;49.092;8.516;2024-02-15T11:47:19;17.00;23.30
12156;DHT22;6141;49.092;8.516;2024-02-15T11:50:09;16.90;24.10
12156;DHT22;6141;49.092;8.516;2024-02-15T11:53:02;17.10;23.80
12156;DHT22;6141;49.092;8.516;2024-02-15T11:56:00;17.30;23.30
12156;DHT22;6141;49.092;8.516;2024-02-15T11:59:01;17.40;23.40
12156;DHT22;6141;49.092;8.516;2024-02-15T12:01:53;17.60;22.90
12156;DHT22;6141;49.092;8.516;2024-02-15T12:04:59;17.70;22.40
12156;DHT22;6141;49.092;8.516;2024-02-15T12:08:05;17.40;22.80
12156;DHT22;6141;49.092;8.516;2024-02-15T12:11:14;17.80;21.60
12156;DHT22;6141;49.092;8.516;2024-02-15T12:14:20;17.90;21.50
12156;DHT22;6141;49.092;8.516;2024-02-15T12:17:27;17.90;22.20
12156;DHT22;6141;49.092;8.516;2024-02-15T12:20:34;17.90;21.80
12156;DHT22;6141;49.092;8.516;2024-02-15T12:23:22;17.90;21.10
12156;DHT22;6141;49.092;8.516;2024-02-15T12:26:11;17.90;22.50
12156;DHT22;6141;49.092;8.516;2024-02-15T12:29:01;18.00;21.80
12156;DHT22;6141;49.092;8.516;2024-02-15T12:31:50;17.70;20.80
12156;DHT22;6141;49.092;8.516;2024-02-15T12:34:40;17.40;20.80
12156;DHT22;6141;49.092;8.516;2024-02-15T12:37:32;17.20;22.10
12156;DHT22;6141;49.092;8.516;2024-02-15T12:40:21;17.20;21.80
12156;DHT22;6141;49.092;8.516;2024-02-15T12:43:10;17.10;21.30
12156;DHT22;6141;49.092;8.516;2024-02-15T12:46:00;17.00;20.90
12156;DHT22;6141;49.092;8.516;2024-02-15T12:48:49;17.00;20.40
12156;DHT22;6141;49.092;8.516;2024-02-15T12:51:49;17.00;21.00
12156;DHT22;6141;49.092;8.516;2024-02-15T12:54:39;17.10;21.70
12156;DHT22;6141;49.092;8.516;2024-02-15T12:57:29;17.00;21.80
12156;DHT22;6141;49.092;8.516;2024-02-15T13:00:21;17.10;20.60
12156;DHT22;6141;49.092;8.516;2024-02-15T13:03:12;17.20;21.10
12156;DHT22;6141;49.092;8.516;2024-02-15T13:06:03;17.30;20.40
12156;DHT22;6141;49.092;8.516;2024-02-15T13:08:53;17.20;20.00
12156;DHT22;6141;49.092;8.516;2024-02-15T13:11:41;17.30;21.50
12156;DHT22;6141;49.092;8.516;2024-02-15T13:14:32;17.40;19.60
12156;DHT22;6141;49.092;8.516;2024-02-15T13:17:23;17.30;20.60
12156;DHT22;6141;49.092;8.516;2024-02-15T13:20:14;17.40;21.30
12156;DHT22;6141;49.092;8.516;2024-02-15T13:23:04;17.60;20.70
12156;DHT22;6141;49.092;8.516;2024-02-15T13:25:58;17.60;19.40
12156;DHT22;6141;49.092;8.516;2024-02-15T13:28:52;17.70;19.50
12156;DHT22;6141;49.092;8.516;2024-02-15T13:31:40;17.70;20.80
12156;DHT22;6141;49.092;8.516;2024-02-15T13:34:29;17.50;18.70
12156;DHT22;6141;49.092;8.516;2024-02-15T13:37:21;17.30;22.10
12156;DHT22;6141;49.092;8.516;2024-02-15T13:40:11;17.30;22.10
12156;DHT22;6141;49.092;8.516;2024-02-15T13:43:04;17.60;20.90
12156;DHT22;6141;49.092;8.516;2024-02-15T13:45:53;17.70;20.20
12156;DHT22;6141;49.092;8.516;2024-02-15T13:48:41;17.60;20.60
12156;DHT22;6141;49.092;8.516;2024-02-15T13:51:31;17.80;20.20
12156;DHT22;6141;49.092;8.516;2024-02-15T13:54:22;17.80;18.90
12156;DHT22;6141;49.092;8.516;2024-02-15T13:57:11;17.90;19.70
12156;DHT22;6141;49.092;8.516;2024-02-15T14:00:03;18.00;20.00
12156;DHT22;6141;49.092;8.516;2024-02-15T14:02:59;17.90;19.20
12156;DHT22;6141;49.092;8.516;2024-02-15T14:05:48;17.80;19.70
12156;DHT22;6141;49.092;8.516;2024-02-15T14:08:37;17.90;19.50
12156;DHT22;6141;49.092;8.516;2024-02-15T14:11:26;17.90;19.80
12156;DHT22;6141;49.092;8.516;2024-02-15T14:14:14;18.00;18.60
12156;DHT22;6141;49.092;8.516;2024-02-15T14:17:05;18.00;19.90
12156;DHT22;6141;49.092;8.516;2024-02-15T14:19:54;18.30;18.30
12156;DHT22;6141;49.092;8.516;2024-02-15T14:22:46;18.50;19.40
12156;DHT22;6141;49.092;8.516;2024-02-15T14:25:36;18.40;18.20
12156;DHT22;6141;49.092;8.516;2024-02-15T14:28:24;18.40;18.60
12156;DHT22;6141;49.092;8.516;2024-02-15T14:31:18;18.50;17.70
12156;DHT22;6141;49.092;8.516;2024-02-15T14:34:25;18.50;19.80
12156;DHT22;6141;49.092;8.516;2024-02-15T14:37:14;18.60;18.80
12156;DHT22;6141;49.092;8.516;2024-02-15T14:40:04;18.60;17.80
12156;DHT22;6141;49.092;8.516;2024-02-15T14:42:54;18.50;17.80
12156;DHT22;6141;49.092;8.516;2024-02-15T14:45:43;18.60;17.80
12156;DHT22;6141;49.092;8.516;2024-02-15T14:48:32;18.50;17.70
12156;DHT22;6141;49.092;8.516;2024-02-15T14:51:22;18.20;17.90
12156;DHT22;6141;49.092;8.516;2024-02-15T14:54:11;18.30;19.20
12156;DHT22;6141;49.092;8.516;2024-02-15T14:57:09;18.10;19.10
12156;DHT22;6141;49.092;8.516;2024-02-15T14:59:58;18.10;18.60
12156;DHT22;6141;49.092;8.516;2024-02-15T15:02:47;18.10;18.90
12156;DHT22;6141;49.092;8.516;2024-02-15T15:05:36;17.90;20.20
12156;DHT22;6141;49.092;8.516;2024-02-15T15:08:46;17.70;20.00
12156;DHT22;6141;49.092;8.516;2024-02-15T15:11:52;17.70;20.50
12156;DHT22;6141;49.092;8.516;2024-02-15T15:14:58;17.60;19.80
12156;DHT22;6141;49.092;8.516;2024-02-15T15:17:47;17.50;20.10
12156;DHT22;6141;49.092;8.516;2024-02-15T15:20:36;17.40;19.80
12156;DHT22;6141;49.092;8.516;2024-02-15T15:23:25;17.30;19.70
12156;DHT22;6141;49.092;8.516;2024-02-15T15:26:20;17.30;21.10
12156;DHT22;6141;49.092;8.516;2024-02-15T15:29:09;17.40;20.80
12156;DHT22;6141;49.092;8.516;2024-02-15T15:31:57;17.40;19.70
12156;DHT22;6141;49.092;8.516;2024-02-15T15:34:47;17.40;20.00
12156;DHT22;6141;49.092;8.516;2024-02-15T15:37:35;17.60;20.10
12156;DHT22;6141;49.092;8.516;2024-02-15T15:40:25;17.70;20.40
12156;DHT22;6141;49.092;8.516;2024-02-15T15:43:15;17.50;20.30
12156;DHT22;6141;49.092;8.516;2024-02-15T15:46:04;17.50;20.40
12156;DHT22;6141;49.092;8.516;2024-02-15T15:48:52;17.70;21.50
12156;DHT22;6141;49.092;8.516;2024-02-15T15:51:41;17.90;21.60
12156;DHT22;6141;49.092;8.516;2024-02-15T15:54:30;17.90;20.80
12156;DHT22;6141;49.092;8.516;2024-02-15T15:57:19;18.00;20.60
12156;DHT22;6141;49.092;8.516;2024-02-15T16:00:10;18.10;20.50
12156;DHT22;6141;49.092;8.516;2024-02-15T16:03:00;18.00;20.80
12156;DHT22;6141;49.092;8.516;2024-02-15T16:05:52;17.70;20.70
12156;DHT22;6141;49.092;8.516;2024-02-15T16:08:41;17.90;21.30
12156;DHT22;6141;49.092;8.516;2024-02-15T16:11:30;18.00;21.30
12156;DHT22;6141;49.092;8.516;2024-02-15T16:14:19;17.90;22.90
12156;DHT22;6141;49.092;8.516;2024-02-15T16:17:10;17.90;22.20
12156;DHT22;6141;49.092;8.516;2024-02-15T16:20:01;18.20;20.80
12156;DHT22;6141;49.092;8.516;2024-02-15T16:22:51;17.90;22.50
12156;DHT22;6141;49.092;8.516;2024-02-15T16:25:39;17.70;22.40
12156;DHT22;6141;49.092;8.516;2024-02-15T16:28:28;18.00;22.70
12156;DHT22;6141;49.092;8.516;2024-02-15T16:31:16;17.70;22.90
12156;DHT22;6141;49.092;8.516;2024-02-15T16:34:07;17.80;22.30
12156;DHT22;6141;49.092;8.516;2024-02-15T16:36:56;17.80;22.40
12156;DHT22;6141;49.092;8.516;2024-02-15T16:39:44;17.70;22.40
12156;DHT22;6141;49.092;8.516;2024-02-15T16:42:33;17.70;21.90
12156;DHT22;6141;49.092;8.516;2024-02-15T16:45:22;17.60;22.30
12156;DHT22;6141;49.092;8.516;2024-02-15T16:48:10;17.60;22.30
12156;DHT22;6141;49.092;8.516;2024-02-15T16:51:00;17.70;21.90
12156;DHT22;6141;49.092;8.516;2024-02-15T16:53:50;17.70;21.20
12156;DHT22;6141;49.092;8.516;2024-02-15T16:56:38;17.50;21.50
12156;DHT22;6141;49.092;8.516;2024-02-15T16:59:29;17.50;22.30
12156;DHT22;6141;49.092;8.516;2024-02-15T17:02:19;17.60;21.60
12156;DHT22;6141;49.092;8.516;2024-02-15T17:05:08;17.60;21.10
12156;DHT22;6141;49.092;8.516;2024-02-15T17:07:58;17.70;20.20
12156;DHT22;6141;49.092;8.516;2024-02-15T17:10:47;17.50;20.80
12156;DHT22;6141;49.092;8.516;2024-02-15T17:13:37;17.30;22.10
12156;DHT22;6141;49.092;8.516;2024-02-15T17:16:30;17.20;22.00
12156;DHT22;6141;49.092;8.516;2024-02-15T17:19:21;17.10;21.40
12156;DHT22;6141;49.092;8.516;2024-02-15T17:22:10;17.00;21.80
12156;DHT22;6141;49.092;8.516;2024-02-15T17:25:01;17.00;21.80
12156;DHT22;6141;49.092;8.516;2024-02-15T17:27:52;17.00;21.90
12156;DHT22;6141;49.092;8.516;2024-02-15T17:30:42;17.10;21.50
12156;DHT22;6141;49.092;8.516;2024-02-15T17:33:32;17.00;23.00
12156;DHT22;6141;49.092;8.516;2024-02-15T17:36:21;16.90;23.10
12156;DHT22;6141;49.092;8.516;2024-02-15T17:39:11;16.90;23.20
12156;DHT22;6141;49.092;8.516;2024-02-15T17:42:04;17.00;23.10
12156;DHT22;6141;49.092;8.516;2024-02-15T17:44:53;16.90;23.10
12156;DHT22;6141;49.092;8.516;2024-02-15T17:47:42;16.60;24.80
12156;DHT22;6141;49.092;8.516;2024-02-15T17:50:32;16.60;23.30
12156;DHT22;6141;49.092;8.516;2024-02-15T17:53:20;16.40;23.20
12156;DHT22;6141;49.092;8.516;2024-02-15T17:56:10;16.20;23.60
12156;DHT22;6141;49.092;8.516;2024-02-15T17:59:02;16.00;24.10
12156;DHT22;6141;49.092;8.516;2024-02-15T18:01:51;15.90;25.20
12156;DHT22;6141;49.092;8.516;2024-02-15T18:04:40;16.10;24.40
12156;DHT22;6141;49.092;8.516;2024-02-15T18:07:29;16.40;23.80
12156;DHT22;6141;49.092;8.516;2024-02-15T18:10:19;16.30;23.60
12156;DHT22;6141;49.092;8.516;2024-02-15T18:13:09;16.20;24.20
12156;DHT22;6141;49.092;8.516;2024-02-15T18:15:59;16.10;24.40